This is the latest recevied weather packets stored in our database for station/object WA5KWK. If no packets are shown the sender has not sent any weather packets the latest 10 day(s).
| Time | Temp. | Humidity | Pressure | Rain* | Wind** | Luminosity | Snow |
|---|---|---|---|---|---|---|---|
| 1777742704 | 21.67° C | 58% | 1012.9 hPa | 0 mm | - | 626 W/m² | - |
| 1777736105 | 20° C | 59% | 1012.6 hPa | 0 mm | - | 181 W/m² | - |
| 1777734004 | 19.44° C | 58% | 1012.4 hPa | 0 mm | - | 257 W/m² | - |
| 1777733405 | 18.89° C | 56% | 1012.5 hPa | 0 mm | - | 183 W/m² | - |
| 1777731005 | 17.78° C | 54% | 1012.2 hPa | 0 mm | - | 65 W/m² | - |
| 1777727704 | 17.78° C | 58% | 1011.9 hPa | 0 mm | - | 5 W/m² | - |
| 1777725604 | 18.33° C | 57% | 1011.7 hPa | 0 mm | - | 0 W/m² | - |
| 1777724704 | 17.78° C | 58% | 1011.7 hPa | 0 mm | - | 0 W/m² | - |
| 1777723204 | 17.78° C | 58% | 1012 hPa | 0 mm | - | 0 W/m² | - |
| 1777719304 | 16.11° C | 72% | 1012.3 hPa | 0 mm | - | 0 W/m² | - |
| 1777716304 | 15.56° C | 78% | 1012.6 hPa | 0 mm | - | 0 W/m² | - |
| 1777715404 | 16.11° C | 77% | 1012.7 hPa | 0 mm | - | 0 W/m² | - |
| 1777712404 | 16.11° C | 76% | 1013 hPa | 0 mm | - | 0 W/m² | - |
| 1777711505 | 16.11° C | 77% | 1013.1 hPa | 0 mm | - | 0 W/m² | - |
| 1777707605 | 15.56° C | 78% | 1013.5 hPa | 0 mm | - | 0 W/m² | - |
| 1777704304 | 15.56° C | 78% | 1013.5 hPa | 0 mm | - | 0 W/m² | - |
| 1777703104 | 15.56° C | 78% | 1013.5 hPa | 0 mm | - | 0 W/m² | - |
| 1777701905 | 16.11° C | 77% | 1013.7 hPa | 0 mm | - | 0 W/m² | - |
| 1777695904 | 17.22° C | 73% | 1013.6 hPa | 0 mm | - | 0 W/m² | - |
| 1777689305 | 20° C | 65% | 1012.8 hPa | 0 mm | - | 16 W/m² | - |
| 1777685404 | 21.67° C | 62% | 1013.1 hPa | 0 mm | - | 123 W/m² | - |
| 1777685104 | 21.67° C | 63% | 1013 hPa | 0 mm | - | 135 W/m² | - |
| 1777684505 | 22.22° C | 59% | 1013.2 hPa | 0 mm | - | 144 W/m² | - |
| 1777683005 | 22.78° C | 58% | 1013.3 hPa | 0 mm | - | 269 W/m² | - |
| 1777682405 | 22.78° C | 55% | 1013.1 hPa | 0 mm | - | 278 W/m² | - |
* Rain latest hour (hover to see other rain measurements)
** Current wind speed in m/s (hover to see current wind gust speed)